New Orleans, LA (70164)

1:36 PM CDT on September 30, 2014 (GMT -0500)
Gentilly Terrace | Change Station
CLOSE
Current Station
Personal Weather Station
Location: New Orleans, LA
Elevation: 15 ft
Nearby Weather Stations

Elev 15 ft 30.00 °N, 90.05 °W | Updated 13 seconds ago

Mostly Cloudy
Mostly Cloudy
85.4 °F
Feels Like 92 °F
N
2.0
Wind Variable Wind from East
Gusts 4.0 mph

Today
High -- | Low -- °F
--% Chance of Precip.
Yesterday
High -- | Low -- °F
Precip. -- in
6:52 AM 6:46 PM
Waxing Crescent, 39% visible
Pressure 29.88 in
Visibility 10.0 miles
Clouds Mostly Cloudy 2600 ft
Mostly Cloudy 3400 ft
Heat Index 92 °F
Dew Point 73 °F
Humidity 66%
Rainfall 0.00 in
Snow Depth Not available.
UV 5 out of 12
Pollen 7.30 out of 12
Ozone Good
PM2.5 Good
Flu Activity Not available.
METAR KNEW 301753Z 03008KT 10SM BKN026 BKN034 28/22 A2990 RMK AO2 SLP118 T02780222 10278 20244 58005

More Conditions Fewer Conditions

Pressure 29.88 in
Visibility 10.0 miles
Clouds Mostly Cloudy 2600 ft
Mostly Cloudy 3400 ft
Heat Index 92 °F
Dew Point 73 °F
Humidity 66%
Rainfall 0.00 in
Snow Depth Not available.
UV 5 out of 12
Pollen 7.30 out of 12
Ozone Good
PM2.5 Good
Flu Activity Not available.
METAR KNEW 301753Z 03008KT 10SM BKN026 BKN034 28/22 A2990 RMK AO2 SLP118 T02780222 10278 20244 58005

More Conditions Fewer Conditions

10-Day Weather Forecast

Almanac

Astronomy

Sep. 30, 2014 Rise Set
Actual Time 6:52 AM CDT 6:46 PM CDT
Civil Twilight 6:28 AM CDT 7:10 PM CDT
Nautical Twilight 6:01 AM CDT 7:38 PM CDT
Astronomical Twilight 5:33 AM CDT 8:06 PM CDT
Moon 12:41 PM CDT 11:35 PM CDT
Length of Visible Light 12h 41m
Length of Day
11h 53m
Tomorrow will be 1m 48s shorter.
Waxing Crescent, 39% of the Moon is Illuminated
Today
Waxing Crescent
Oct 1
First Quarter
Oct 8
Full
Oct 15
Last Quarter
Oct 23
New

Today's Extremes

State Highs State Lows

Community

WunderPhotos

Upload Photos

1,757,714 photos uploaded!

Nearby

Air Quality

  Air Quality AQ Index Pollutant
Yesterday Good
PM2.5
Yesterday Good
OZONE
Current Good
PM2.5
Current Good
OZONE
Tuesday Good
PM2.5
Tuesday Good
OZONE
Wednesday Good
OZONE
Wednesday Good
PM2.5

Snow Depth

Station Depth Elevation
No new snow has been reported.

Earthquake Activity

City Distance Mag. Time & Date
No recent earthquake activity has been reported nearby.
Minimum magnitude displayed is 2.5.

Coastal Water Temperatures

Place Temperature
New Canal, LA 77.0 °F
Shell Beach, LA 75.0 °F
Bayou Gauche, LA 80.1 °F

Nearby Weather Stations